sensor_id;sensor_type;location;lat;lon;timestamp;temperature;humidity
25214;DHT22;13160;51.834;4.706;2023-09-12T00:01:06;20.50;99.90
25214;DHT22;13160;51.834;4.706;2023-09-12T00:03:37;20.50;99.90
25214;DHT22;13160;51.834;4.706;2023-09-12T00:06:05;20.50;99.90
25214;DHT22;13160;51.834;4.706;2023-09-12T00:08:34;20.40;99.90
25214;DHT22;13160;51.834;4.706;2023-09-12T00:11:03;20.40;99.90
25214;DHT22;13160;51.834;4.706;2023-09-12T00:13:32;20.40;99.90
25214;DHT22;13160;51.834;4.706;2023-09-12T00:16:02;20.40;99.90
25214;DHT22;13160;51.834;4.706;2023-09-12T00:18:32;20.30;99.90
25214;DHT22;13160;51.834;4.706;2023-09-12T00:21:01;20.30;99.90
25214;DHT22;13160;51.834;4.706;2023-09-12T00:23:30;20.30;99.90
25214;DHT22;13160;51.834;4.706;2023-09-12T00:25:59;20.20;99.90
25214;DHT22;13160;51.834;4.706;2023-09-12T00:28:27;20.20;99.90
25214;DHT22;13160;51.834;4.706;2023-09-12T00:30:55;20.20;99.90
25214;DHT22;13160;51.834;4.706;2023-09-12T00:33:25;20.20;99.90
25214;DHT22;13160;51.834;4.706;2023-09-12T00:35:54;20.20;99.90
25214;DHT22;13160;51.834;4.706;2023-09-12T00:38:22;20.10;99.90
25214;DHT22;13160;51.834;4.706;2023-09-12T00:40:50;20.10;99.90
25214;DHT22;13160;51.834;4.706;2023-09-12T00:43:21;20.10;99.90
25214;DHT22;13160;51.834;4.706;2023-09-12T00:45:49;20.10;99.90
25214;DHT22;13160;51.834;4.706;2023-09-12T00:48:18;20.10;99.90
25214;DHT22;13160;51.834;4.706;2023-09-12T00:50:50;20.10;99.90
25214;DHT22;13160;51.834;4.706;2023-09-12T00:53:20;20.10;99.90
25214;DHT22;13160;51.834;4.706;2023-09-12T00:55:53;20.00;99.90
25214;DHT22;13160;51.834;4.706;2023-09-12T00:58:24;20.00;99.90
25214;DHT22;13160;51.834;4.706;2023-09-12T01:00:52;20.00;99.90
25214;DHT22;13160;51.834;4.706;2023-09-12T01:03:21;20.00;99.90
25214;DHT22;13160;51.834;4.706;2023-09-12T01:05:52;19.90;99.90
25214;DHT22;13160;51.834;4.706;2023-09-12T01:08:23;19.90;99.90
25214;DHT22;13160;51.834;4.706;2023-09-12T01:10:52;19.90;99.90
25214;DHT22;13160;51.834;4.706;2023-09-12T01:13:23;19.90;99.90
25214;DHT22;13160;51.834;4.706;2023-09-12T01:15:52;19.90;99.90
25214;DHT22;13160;51.834;4.706;2023-09-12T01:18:20;19.90;99.90
25214;DHT22;13160;51.834;4.706;2023-09-12T01:21:05;19.80;99.90
25214;DHT22;13160;51.834;4.706;2023-09-12T01:24:05;19.80;99.90
25214;DHT22;13160;51.834;4.706;2023-09-12T01:27:19;19.80;99.90
25214;DHT22;13160;51.834;4.706;2023-09-12T01:29:51;19.80;99.90
25214;DHT22;13160;51.834;4.706;2023-09-12T01:32:22;19.70;99.90
25214;DHT22;13160;51.834;4.706;2023-09-12T01:34:50;19.70;99.90
25214;DHT22;13160;51.834;4.706;2023-09-12T01:37:18;19.70;99.90
25214;DHT22;13160;51.834;4.706;2023-09-12T01:39:47;19.70;99.90
25214;DHT22;13160;51.834;4.706;2023-09-12T01:42:18;19.70;99.90
25214;DHT22;13160;51.834;4.706;2023-09-12T01:44:51;19.70;99.90
25214;DHT22;13160;51.834;4.706;2023-09-12T01:47:22;19.60;99.90
25214;DHT22;13160;51.834;4.706;2023-09-12T01:49:54;19.60;99.90
25214;DHT22;13160;51.834;4.706;2023-09-12T01:52:25;19.50;99.90
25214;DHT22;13160;51.834;4.706;2023-09-12T01:54:55;19.50;99.90
25214;DHT22;13160;51.834;4.706;2023-09-12T01:57:25;19.50;99.90
25214;DHT22;13160;51.834;4.706;2023-09-12T01:59:54;19.50;99.90
25214;DHT22;13160;51.834;4.706;2023-09-12T02:02:22;19.50;99.90
25214;DHT22;13160;51.834;4.706;2023-09-12T02:05:00;19.50;99.90
25214;DHT22;13160;51.834;4.706;2023-09-12T02:07:42;19.50;99.90
25214;DHT22;13160;51.834;4.706;2023-09-12T02:10:10;19.50;99.90
25214;DHT22;13160;51.834;4.706;2023-09-12T02:12:40;19.60;99.90
25214;DHT22;13160;51.834;4.706;2023-09-12T02:15:09;19.50;99.90
25214;DHT22;13160;51.834;4.706;2023-09-12T02:17:39;19.50;99.90
25214;DHT22;13160;51.834;4.706;2023-09-12T02:20:08;19.50;99.90
25214;DHT22;13160;51.834;4.706;2023-09-12T02:22:38;19.50;99.90
25214;DHT22;13160;51.834;4.706;2023-09-12T02:25:07;19.50;99.90
25214;DHT22;13160;51.834;4.706;2023-09-12T02:27:36;19.50;99.90
25214;DHT22;13160;51.834;4.706;2023-09-12T02:30:07;19.50;99.90
25214;DHT22;13160;51.834;4.706;2023-09-12T02:32:38;19.50;99.90
25214;DHT22;13160;51.834;4.706;2023-09-12T02:35:09;19.50;99.90
25214;DHT22;13160;51.834;4.706;2023-09-12T02:37:38;19.50;99.90
25214;DHT22;13160;51.834;4.706;2023-09-12T02:40:07;19.50;99.90
25214;DHT22;13160;51.834;4.706;2023-09-12T02:42:37;19.50;99.90
25214;DHT22;13160;51.834;4.706;2023-09-12T02:45:08;19.50;99.90
25214;DHT22;13160;51.834;4.706;2023-09-12T02:47:37;19.50;99.90
25214;DHT22;13160;51.834;4.706;2023-09-12T02:50:06;19.50;99.90
25214;DHT22;13160;51.834;4.706;2023-09-12T02:52:37;19.40;99.90
25214;DHT22;13160;51.834;4.706;2023-09-12T02:55:06;19.40;99.90
25214;DHT22;13160;51.834;4.706;2023-09-12T02:57:35;19.50;99.90
25214;DHT22;13160;51.834;4.706;2023-09-12T03:00:04;19.50;99.90
25214;DHT22;13160;51.834;4.706;2023-09-12T03:02:36;19.40;99.90
25214;DHT22;13160;51.834;4.706;2023-09-12T03:05:05;19.50;99.90
25214;DHT22;13160;51.834;4.706;2023-09-12T03:07:33;19.40;99.90
25214;DHT22;13160;51.834;4.706;2023-09-12T03:10:01;19.50;99.90
25214;DHT22;13160;51.834;4.706;2023-09-12T03:12:30;19.50;99.90
25214;DHT22;13160;51.834;4.706;2023-09-12T03:14:58;19.50;99.90
25214;DHT22;13160;51.834;4.706;2023-09-12T03:17:28;19.50;99.90
25214;DHT22;13160;51.834;4.706;2023-09-12T03:19:58;19.50;99.90
25214;DHT22;13160;51.834;4.706;2023-09-12T03:22:27;19.50;99.90
25214;DHT22;13160;51.834;4.706;2023-09-12T03:24:55;19.50;99.90
25214;DHT22;13160;51.834;4.706;2023-09-12T03:27:23;19.50;99.90
25214;DHT22;13160;51.834;4.706;2023-09-12T03:29:51;19.50;99.90
25214;DHT22;13160;51.834;4.706;2023-09-12T03:32:20;19.50;99.90
25214;DHT22;13160;51.834;4.706;2023-09-12T03:34:48;19.50;99.90
25214;DHT22;13160;51.834;4.706;2023-09-12T03:37:18;19.50;99.90
25214;DHT22;13160;51.834;4.706;2023-09-12T03:39:48;19.50;99.90
25214;DHT22;13160;51.834;4.706;2023-09-12T03:42:16;19.50;99.90
25214;DHT22;13160;51.834;4.706;2023-09-12T03:44:45;19.50;99.90
25214;DHT22;13160;51.834;4.706;2023-09-12T03:47:13;19.50;99.90
25214;DHT22;13160;51.834;4.706;2023-09-12T03:49:41;19.60;99.90
25214;DHT22;13160;51.834;4.706;2023-09-12T03:52:10;19.60;99.90
25214;DHT22;13160;51.834;4.706;2023-09-12T03:54:39;19.60;99.90
25214;DHT22;13160;51.834;4.706;2023-09-12T03:57:08;19.60;99.90
25214;DHT22;13160;51.834;4.706;2023-09-12T03:59:36;19.60;99.90
25214;DHT22;13160;51.834;4.706;2023-09-12T04:02:04;19.60;99.90
25214;DHT22;13160;51.834;4.706;2023-09-12T04:04:33;19.60;99.90
25214;DHT22;13160;51.834;4.706;2023-09-12T04:07:01;19.60;99.90
25214;DHT22;13160;51.834;4.706;2023-09-12T04:09:31;19.60;99.90
25214;DHT22;13160;51.834;4.706;2023-09-12T04:12:01;19.60;99.90
25214;DHT22;13160;51.834;4.706;2023-09-12T04:14:29;19.60;99.90
25214;DHT22;13160;51.834;4.706;2023-09-12T04:16:57;19.70;99.90
25214;DHT22;13160;51.834;4.706;2023-09-12T04:19:26;19.70;99.90
25214;DHT22;13160;51.834;4.706;2023-09-12T04:21:54;19.70;99.90
25214;DHT22;13160;51.834;4.706;2023-09-12T04:24:22;19.70;99.90
25214;DHT22;13160;51.834;4.706;2023-09-12T04:26:51;19.70;99.90
25214;DHT22;13160;51.834;4.706;2023-09-12T04:29:21;19.70;99.90
25214;DHT22;13160;51.834;4.706;2023-09-12T04:31:49;19.70;99.90
25214;DHT22;13160;51.834;4.706;2023-09-12T04:34:19;19.80;99.90
25214;DHT22;13160;51.834;4.706;2023-09-12T04:36:48;19.80;99.90
25214;DHT22;13160;51.834;4.706;2023-09-12T04:39:16;19.80;99.90
25214;DHT22;13160;51.834;4.706;2023-09-12T04:41:46;19.80;99.90
25214;DHT22;13160;51.834;4.706;2023-09-12T04:44:14;19.90;99.90
25214;DHT22;13160;51.834;4.706;2023-09-12T04:46:47;19.80;99.90
25214;DHT22;13160;51.834;4.706;2023-09-12T04:49:17;19.80;99.90
25214;DHT22;13160;51.834;4.706;2023-09-12T04:51:46;19.90;99.90
25214;DHT22;13160;51.834;4.706;2023-09-12T04:54:14;19.90;99.90
25214;DHT22;13160;51.834;4.706;2023-09-12T04:56:43;19.90;99.90
25214;DHT22;13160;51.834;4.706;2023-09-12T04:59:11;19.90;99.90
25214;DHT22;13160;51.834;4.706;2023-09-12T05:01:39;19.90;99.90
25214;DHT22;13160;51.834;4.706;2023-09-12T05:04:09;19.90;99.90
25214;DHT22;13160;51.834;4.706;2023-09-12T05:06:38;19.90;99.90
25214;DHT22;13160;51.834;4.706;2023-09-12T05:09:06;19.90;99.90
25214;DHT22;13160;51.834;4.706;2023-09-12T05:11:36;19.90;99.90
25214;DHT22;13160;51.834;4.706;2023-09-12T05:14:04;19.90;99.90
25214;DHT22;13160;51.834;4.706;2023-09-12T05:16:33;19.90;99.90
25214;DHT22;13160;51.834;4.706;2023-09-12T05:19:01;19.90;99.90
25214;DHT22;13160;51.834;4.706;2023-09-12T05:21:32;19.90;99.90
25214;DHT22;13160;51.834;4.706;2023-09-12T05:24:03;19.90;99.90
25214;DHT22;13160;51.834;4.706;2023-09-12T05:26:32;19.90;99.90
25214;DHT22;13160;51.834;4.706;2023-09-12T05:29:01;19.90;99.90
25214;DHT22;13160;51.834;4.706;2023-09-12T05:31:29;19.90;99.90
25214;DHT22;13160;51.834;4.706;2023-09-12T05:34:02;19.90;99.90
25214;DHT22;13160;51.834;4.706;2023-09-12T05:36:33;19.90;99.90
25214;DHT22;13160;51.834;4.706;2023-09-12T05:39:02;20.00;99.90
25214;DHT22;13160;51.834;4.706;2023-09-12T05:41:41;20.00;99.90
25214;DHT22;13160;51.834;4.706;2023-09-12T05:44:10;20.00;99.90
25214;DHT22;13160;51.834;4.706;2023-09-12T05:46:39;20.00;99.90
25214;DHT22;13160;51.834;4.706;2023-09-12T05:49:08;20.00;99.90
25214;DHT22;13160;51.834;4.706;2023-09-12T05:51:38;20.00;99.90
25214;DHT22;13160;51.834;4.706;2023-09-12T05:54:07;20.00;99.90
25214;DHT22;13160;51.834;4.706;2023-09-12T05:56:38;20.00;99.90
25214;DHT22;13160;51.834;4.706;2023-09-12T05:59:07;20.00;99.90
25214;DHT22;13160;51.834;4.706;2023-09-12T06:01:35;20.00;99.90
25214;DHT22;13160;51.834;4.706;2023-09-12T06:04:04;20.10;99.90
25214;DHT22;13160;51.834;4.706;2023-09-12T06:06:33;20.00;99.90
25214;DHT22;13160;51.834;4.706;2023-09-12T06:09:03;20.00;99.90
25214;DHT22;13160;51.834;4.706;2023-09-12T06:11:31;20.10;99.90
25214;DHT22;13160;51.834;4.706;2023-09-12T06:13:59;20.10;99.90
25214;DHT22;13160;51.834;4.706;2023-09-12T06:16:28;20.10;99.90
25214;DHT22;13160;51.834;4.706;2023-09-12T06:18:56;20.10;99.90
25214;DHT22;13160;51.834;4.706;2023-09-12T06:21:25;20.10;99.90
25214;DHT22;13160;51.834;4.706;2023-09-12T06:24:10;20.10;99.90
25214;DHT22;13160;51.834;4.706;2023-09-12T06:26:41;20.10;99.90
25214;DHT22;13160;51.834;4.706;2023-09-12T06:29:09;20.10;99.90
25214;DHT22;13160;51.834;4.706;2023-09-12T06:31:38;20.10;99.90
25214;DHT22;13160;51.834;4.706;2023-09-12T06:34:08;20.10;99.90
25214;DHT22;13160;51.834;4.706;2023-09-12T06:36:38;20.10;99.90
25214;DHT22;13160;51.834;4.706;2023-09-12T06:39:09;20.10;99.90
25214;DHT22;13160;51.834;4.706;2023-09-12T06:41:38;20.20;99.90
25214;DHT22;13160;51.834;4.706;2023-09-12T06:44:06;20.20;99.90
25214;DHT22;13160;51.834;4.706;2023-09-12T06:46:37;20.20;99.90
25214;DHT22;13160;51.834;4.706;2023-09-12T06:49:05;20.20;99.90
25214;DHT22;13160;51.834;4.706;2023-09-12T06:51:34;20.20;99.90
25214;DHT22;13160;51.834;4.706;2023-09-12T06:54:04;20.20;99.90
25214;DHT22;13160;51.834;4.706;2023-09-12T06:56:34;20.30;99.90
25214;DHT22;13160;51.834;4.706;2023-09-12T06:59:05;20.40;99.90
25214;DHT22;13160;51.834;4.706;2023-09-12T07:01:33;20.50;99.90
25214;DHT22;13160;51.834;4.706;2023-09-12T07:04:02;20.50;99.90
25214;DHT22;13160;51.834;4.706;2023-09-12T07:06:30;20.50;99.90
25214;DHT22;13160;51.834;4.706;2023-09-12T07:08:59;20.60;99.90
25214;DHT22;13160;51.834;4.706;2023-09-12T07:11:29;20.60;99.90
25214;DHT22;13160;51.834;4.706;2023-09-12T07:13:59;20.70;99.90
25214;DHT22;13160;51.834;4.706;2023-09-12T07:16:30;20.70;99.90
25214;DHT22;13160;51.834;4.706;2023-09-12T07:18:59;20.70;99.90
25214;DHT22;13160;51.834;4.706;2023-09-12T07:21:28;20.70;99.90
25214;DHT22;13160;51.834;4.706;2023-09-12T07:23:56;20.80;99.90
25214;DHT22;13160;51.834;4.706;2023-09-12T07:26:24;20.80;99.90
25214;DHT22;13160;51.834;4.706;2023-09-12T07:28:54;20.80;99.90
25214;DHT22;13160;51.834;4.706;2023-09-12T07:31:24;20.80;99.90
25214;DHT22;13160;51.834;4.706;2023-09-12T07:33:52;20.80;99.90
25214;DHT22;13160;51.834;4.706;2023-09-12T07:36:21;20.90;99.90
25214;DHT22;13160;51.834;4.706;2023-09-12T07:38:49;20.90;99.90
25214;DHT22;13160;51.834;4.706;2023-09-12T07:41:17;21.00;99.90
25214;DHT22;13160;51.834;4.706;2023-09-12T07:43:46;21.00;99.90
25214;DHT22;13160;51.834;4.706;2023-09-12T07:46:14;21.10;99.90
25214;DHT22;13160;51.834;4.706;2023-09-12T07:48:44;21.20;99.90
25214;DHT22;13160;51.834;4.706;2023-09-12T07:51:13;21.20;99.90
25214;DHT22;13160;51.834;4.706;2023-09-12T07:53:44;21.20;99.90
25214;DHT22;13160;51.834;4.706;2023-09-12T07:56:12;21.30;99.90
25214;DHT22;13160;51.834;4.706;2023-09-12T07:58:41;21.30;99.90
25214;DHT22;13160;51.834;4.706;2023-09-12T08:01:10;21.40;99.90
25214;DHT22;13160;51.834;4.706;2023-09-12T08:03:41;21.40;99.90
25214;DHT22;13160;51.834;4.706;2023-09-12T08:06:12;21.50;99.90
25214;DHT22;13160;51.834;4.706;2023-09-12T08:08:40;21.50;99.90
25214;DHT22;13160;51.834;4.706;2023-09-12T08:11:11;21.60;99.90
25214;DHT22;13160;51.834;4.706;2023-09-12T08:13:39;21.60;99.90
25214;DHT22;13160;51.834;4.706;2023-09-12T08:16:08;21.70;99.90
25214;DHT22;13160;51.834;4.706;2023-09-12T08:18:37;21.80;99.90
25214;DHT22;13160;51.834;4.706;2023-09-12T08:21:05;21.80;99.90
25214;DHT22;13160;51.834;4.706;2023-09-12T08:23:35;21.90;99.90
25214;DHT22;13160;51.834;4.706;2023-09-12T08:26:03;21.90;99.90
25214;DHT22;13160;51.834;4.706;2023-09-12T08:28:32;22.00;99.90
25214;DHT22;13160;51.834;4.706;2023-09-12T08:31:00;22.00;99.90
25214;DHT22;13160;51.834;4.706;2023-09-12T08:33:28;22.10;99.90
25214;DHT22;13160;51.834;4.706;2023-09-12T08:35:57;22.10;99.90
25214;DHT22;13160;51.834;4.706;2023-09-12T08:38:25;22.20;99.90
25214;DHT22;13160;51.834;4.706;2023-09-12T08:40:55;22.20;99.90
25214;DHT22;13160;51.834;4.706;2023-09-12T08:43:24;22.30;99.90
25214;DHT22;13160;51.834;4.706;2023-09-12T08:45:52;22.40;99.90
25214;DHT22;13160;51.834;4.706;2023-09-12T08:48:23;22.50;99.90
25214;DHT22;13160;51.834;4.706;2023-09-12T08:50:53;22.60;99.90
25214;DHT22;13160;51.834;4.706;2023-09-12T08:53:22;22.70;99.90
25214;DHT22;13160;51.834;4.706;2023-09-12T08:55:51;22.70;99.90
25214;DHT22;13160;51.834;4.706;2023-09-12T08:58:22;22.90;99.90
25214;DHT22;13160;51.834;4.706;2023-09-12T09:00:51;23.00;99.90
25214;DHT22;13160;51.834;4.706;2023-09-12T09:03:21;23.10;99.90
25214;DHT22;13160;51.834;4.706;2023-09-12T09:05:51;23.20;99.90
25214;DHT22;13160;51.834;4.706;2023-09-12T09:08:21;23.30;99.90
25214;DHT22;13160;51.834;4.706;2023-09-12T09:10:57;23.40;99.90
25214;DHT22;13160;51.834;4.706;2023-09-12T09:13:27;23.50;99.90
25214;DHT22;13160;51.834;4.706;2023-09-12T09:16:09;23.50;99.90
25214;DHT22;13160;51.834;4.706;2023-09-12T09:18:52;23.50;99.90
25214;DHT22;13160;51.834;4.706;2023-09-12T09:21:23;23.60;99.90
25214;DHT22;13160;51.834;4.706;2023-09-12T09:23:52;23.70;99.90
25214;DHT22;13160;51.834;4.706;2023-09-12T09:26:22;23.80;99.90
25214;DHT22;13160;51.834;4.706;2023-09-12T09:29:06;23.90;99.90
25214;DHT22;13160;51.834;4.706;2023-09-12T09:31:40;23.90;99.90
25214;DHT22;13160;51.834;4.706;2023-09-12T09:34:13;23.90;99.90
25214;DHT22;13160;51.834;4.706;2023-09-12T09:36:44;23.90;99.90
25214;DHT22;13160;51.834;4.706;2023-09-12T09:39:16;24.00;99.90
25214;DHT22;13160;51.834;4.706;2023-09-12T09:41:47;24.10;99.90
25214;DHT22;13160;51.834;4.706;2023-09-12T09:44:17;24.20;99.90
25214;DHT22;13160;51.834;4.706;2023-09-12T09:46:46;24.20;99.90
25214;DHT22;13160;51.834;4.706;2023-09-12T09:49:20;24.20;99.90
25214;DHT22;13160;51.834;4.706;2023-09-12T09:51:49;24.10;99.90
25214;DHT22;13160;51.834;4.706;2023-09-12T09:54:17;24.20;99.90
25214;DHT22;13160;51.834;4.706;2023-09-12T09:56:46;24.20;99.90
25214;DHT22;13160;51.834;4.706;2023-09-12T09:59:18;24.30;99.90
25214;DHT22;13160;51.834;4.706;2023-09-12T10:01:50;24.40;99.90
25214;DHT22;13160;51.834;4.706;2023-09-12T10:04:22;24.50;99.90
25214;DHT22;13160;51.834;4.706;2023-09-12T10:06:52;24.60;99.90
25214;DHT22;13160;51.834;4.706;2023-09-12T10:09:26;24.70;99.90
25214;DHT22;13160;51.834;4.706;2023-09-12T10:11:56;24.70;99.90
25214;DHT22;13160;51.834;4.706;2023-09-12T10:14:27;24.80;99.90
25214;DHT22;13160;51.834;4.706;2023-09-12T10:17:00;24.80;99.90
25214;DHT22;13160;51.834;4.706;2023-09-12T10:19:38;24.80;99.90
25214;DHT22;13160;51.834;4.706;2023-09-12T10:22:15;24.80;99.90
25214;DHT22;13160;51.834;4.706;2023-09-12T10:24:49;24.80;99.90
25214;DHT22;13160;51.834;4.706;2023-09-12T10:27:19;24.80;99.90
25214;DHT22;13160;51.834;4.706;2023-09-12T10:29:49;24.80;99.90
25214;DHT22;13160;51.834;4.706;2023-09-12T10:32:21;24.90;99.90
25214;DHT22;13160;51.834;4.706;2023-09-12T10:34:52;25.00;99.90
25214;DHT22;13160;51.834;4.706;2023-09-12T10:37:22;25.10;99.90
25214;DHT22;13160;51.834;4.706;2023-09-12T10:39:54;25.20;99.90
25214;DHT22;13160;51.834;4.706;2023-09-12T10:42:24;25.20;99.90
25214;DHT22;13160;51.834;4.706;2023-09-12T10:44:55;25.30;99.90
25214;DHT22;13160;51.834;4.706;2023-09-12T10:47:26;25.40;99.90
25214;DHT22;13160;51.834;4.706;2023-09-12T10:49:54;25.40;99.90
25214;DHT22;13160;51.834;4.706;2023-09-12T10:52:24;25.50;99.90
25214;DHT22;13160;51.834;4.706;2023-09-12T10:54:53;25.50;99.90
25214;DHT22;13160;51.834;4.706;2023-09-12T10:57:22;25.50;99.90
25214;DHT22;13160;51.834;4.706;2023-09-12T11:00:12;25.50;99.90
25214;DHT22;13160;51.834;4.706;2023-09-12T11:02:42;25.60;99.90
25214;DHT22;13160;51.834;4.706;2023-09-12T11:05:37;25.50;99.90
25214;DHT22;13160;51.834;4.706;2023-09-12T11:08:06;25.60;99.90
25214;DHT22;13160;51.834;4.706;2023-09-12T11:10:35;25.50;99.90
25214;DHT22;13160;51.834;4.706;2023-09-12T11:13:03;25.50;99.90
25214;DHT22;13160;51.834;4.706;2023-09-12T11:15:33;25.50;99.90
25214;DHT22;13160;51.834;4.706;2023-09-12T11:18:04;25.50;99.90
25214;DHT22;13160;51.834;4.706;2023-09-12T11:20:53;25.50;99.90
25214;DHT22;13160;51.834;4.706;2023-09-12T11:23:27;25.50;99.90
25214;DHT22;13160;51.834;4.706;2023-09-12T11:26:05;25.60;99.90
25214;DHT22;13160;51.834;4.706;2023-09-12T11:28:34;25.60;99.90
25214;DHT22;13160;51.834;4.706;2023-09-12T11:31:04;25.60;99.90
25214;DHT22;13160;51.834;4.706;2023-09-12T11:33:33;25.70;99.90
25214;DHT22;13160;51.834;4.706;2023-09-12T11:36:02;25.70;99.90
25214;DHT22;13160;51.834;4.706;2023-09-12T11:38:37;25.80;99.90
25214;DHT22;13160;51.834;4.706;2023-09-12T11:41:06;25.80;99.90
25214;DHT22;13160;51.834;4.706;2023-09-12T11:43:37;25.80;99.90
25214;DHT22;13160;51.834;4.706;2023-09-12T11:46:08;25.90;99.90
25214;DHT22;13160;51.834;4.706;2023-09-12T11:48:37;26.00;99.90
25214;DHT22;13160;51.834;4.706;2023-09-12T11:51:07;26.10;99.90
25214;DHT22;13160;51.834;4.706;2023-09-12T11:53:36;26.10;99.90
25214;DHT22;13160;51.834;4.706;2023-09-12T11:56:04;26.20;99.90
25214;DHT22;13160;51.834;4.706;2023-09-12T11:58:33;26.30;99.90
25214;DHT22;13160;51.834;4.706;2023-09-12T12:01:03;26.30;99.90
25214;DHT22;13160;51.834;4.706;2023-09-12T12:03:33;26.40;99.90
25214;DHT22;13160;51.834;4.706;2023-09-12T12:06:02;26.40;99.90
25214;DHT22;13160;51.834;4.706;2023-09-12T12:08:33;26.40;99.90
25214;DHT22;13160;51.834;4.706;2023-09-12T12:11:01;26.50;99.90
25214;DHT22;13160;51.834;4.706;2023-09-12T12:13:29;26.50;99.90
25214;DHT22;13160;51.834;4.706;2023-09-12T12:15:58;26.60;99.90
25214;DHT22;13160;51.834;4.706;2023-09-12T12:18:26;26.60;99.90
25214;DHT22;13160;51.834;4.706;2023-09-12T12:20:56;26.70;99.90
25214;DHT22;13160;51.834;4.706;2023-09-12T12:23:25;26.80;99.90
25214;DHT22;13160;51.834;4.706;2023-09-12T12:25:54;26.80;99.90
25214;DHT22;13160;51.834;4.706;2023-09-12T12:28:22;26.90;99.90
25214;DHT22;13160;51.834;4.706;2023-09-12T12:30:52;27.00;99.90
25214;DHT22;13160;51.834;4.706;2023-09-12T12:33:22;27.10;99.90
25214;DHT22;13160;51.834;4.706;2023-09-12T12:36:13;27.10;99.90
25214;DHT22;13160;51.834;4.706;2023-09-12T12:38:41;27.10;99.90
25214;DHT22;13160;51.834;4.706;2023-09-12T12:41:24;27.20;99.90
25214;DHT22;13160;51.834;4.706;2023-09-12T12:44:05;27.10;99.90
25214;DHT22;13160;51.834;4.706;2023-09-12T12:46:34;27.10;99.90
25214;DHT22;13160;51.834;4.706;2023-09-12T12:49:05;27.10;99.90
25214;DHT22;13160;51.834;4.706;2023-09-12T12:51:34;27.10;99.90
25214;DHT22;13160;51.834;4.706;2023-09-12T12:54:04;27.00;99.90
25214;DHT22;13160;51.834;4.706;2023-09-12T12:56:33;27.00;99.90
25214;DHT22;13160;51.834;4.706;2023-09-12T12:59:05;27.00;99.90
25214;DHT22;13160;51.834;4.706;2023-09-12T13:01:44;27.00;99.90
25214;DHT22;13160;51.834;4.706;2023-09-12T13:04:24;27.00;99.90
25214;DHT22;13160;51.834;4.706;2023-09-12T13:06:57;26.90;99.90
25214;DHT22;13160;51.834;4.706;2023-09-12T13:09:37;26.90;99.90
25214;DHT22;13160;51.834;4.706;2023-09-12T13:12:06;26.90;99.90
25214;DHT22;13160;51.834;4.706;2023-09-12T13:14:36;26.90;99.90
25214;DHT22;13160;51.834;4.706;2023-09-12T13:17:06;27.00;99.90
25214;DHT22;13160;51.834;4.706;2023-09-12T13:19:35;27.00;99.90
25214;DHT22;13160;51.834;4.706;2023-09-12T13:22:06;27.00;99.90
25214;DHT22;13160;51.834;4.706;2023-09-12T13:24:35;27.00;99.90
25214;DHT22;13160;51.834;4.706;2023-09-12T13:27:06;27.00;99.90
25214;DHT22;13160;51.834;4.706;2023-09-12T13:29:35;27.00;99.90
25214;DHT22;13160;51.834;4.706;2023-09-12T13:32:04;26.90;99.90
25214;DHT22;13160;51.834;4.706;2023-09-12T13:34:34;27.00;99.90
25214;DHT22;13160;51.834;4.706;2023-09-12T13:37:03;27.00;99.90
25214;DHT22;13160;51.834;4.706;2023-09-12T13:39:41;27.00;99.90
25214;DHT22;13160;51.834;4.706;2023-09-12T13:42:15;27.10;99.90
25214;DHT22;13160;51.834;4.706;2023-09-12T13:44:47;27.00;99.90
25214;DHT22;13160;51.834;4.706;2023-09-12T13:47:16;27.10;99.90
25214;DHT22;13160;51.834;4.706;2023-09-12T13:49:50;27.10;99.90
25214;DHT22;13160;51.834;4.706;2023-09-12T13:52:20;27.10;99.90
25214;DHT22;13160;51.834;4.706;2023-09-12T13:54:50;27.00;99.90
25214;DHT22;13160;51.834;4.706;2023-09-12T13:57:22;27.00;99.90
25214;DHT22;13160;51.834;4.706;2023-09-12T13:59:50;27.10;99.90
25214;DHT22;13160;51.834;4.706;2023-09-12T14:02:19;27.10;99.90
25214;DHT22;13160;51.834;4.706;2023-09-12T14:04:49;27.10;99.90
25214;DHT22;13160;51.834;4.706;2023-09-12T14:07:32;27.10;99.90
25214;DHT22;13160;51.834;4.706;2023-09-12T14:10:02;27.20;99.90
25214;DHT22;13160;51.834;4.706;2023-09-12T14:12:31;27.20;99.90
25214;DHT22;13160;51.834;4.706;2023-09-12T14:15:00;27.10;99.90
25214;DHT22;13160;51.834;4.706;2023-09-12T14:17:35;27.10;99.90
25214;DHT22;13160;51.834;4.706;2023-09-12T14:20:11;27.00;99.90
25214;DHT22;13160;51.834;4.706;2023-09-12T14:22:42;27.00;99.90
25214;DHT22;13160;51.834;4.706;2023-09-12T14:25:13;27.00;99.90
25214;DHT22;13160;51.834;4.706;2023-09-12T14:27:43;27.00;99.90
25214;DHT22;13160;51.834;4.706;2023-09-12T14:30:12;27.00;99.90
25214;DHT22;13160;51.834;4.706;2023-09-12T14:32:41;27.00;99.90
25214;DHT22;13160;51.834;4.706;2023-09-12T14:35:09;27.00;99.90
25214;DHT22;13160;51.834;4.706;2023-09-12T14:37:37;26.90;99.90
25214;DHT22;13160;51.834;4.706;2023-09-12T14:40:07;26.80;99.90
25214;DHT22;13160;51.834;4.706;2023-09-12T14:42:39;26.80;99.90
25214;DHT22;13160;51.834;4.706;2023-09-12T14:45:09;26.80;99.90
25214;DHT22;13160;51.834;4.706;2023-09-12T14:47:38;26.80;99.90
25214;DHT22;13160;51.834;4.706;2023-09-12T14:50:07;26.80;99.90
25214;DHT22;13160;51.834;4.706;2023-09-12T14:52:36;26.80;99.90
25214;DHT22;13160;51.834;4.706;2023-09-12T14:55:06;26.80;99.90
25214;DHT22;13160;51.834;4.706;2023-09-12T14:57:35;26.80;99.90
25214;DHT22;13160;51.834;4.706;2023-09-12T15:00:07;26.80;99.90
25214;DHT22;13160;51.834;4.706;2023-09-12T15:02:38;26.70;99.90
25214;DHT22;13160;51.834;4.706;2023-09-12T15:05:08;26.70;99.90
25214;DHT22;13160;51.834;4.706;2023-09-12T15:07:39;26.70;99.90
25214;DHT22;13160;51.834;4.706;2023-09-12T15:10:08;26.70;99.90
25214;DHT22;13160;51.834;4.706;2023-09-12T15:12:40;26.60;99.90
25214;DHT22;13160;51.834;4.706;2023-09-12T15:15:11;26.50;99.90
25214;DHT22;13160;51.834;4.706;2023-09-12T15:17:40;26.30;99.90
25214;DHT22;13160;51.834;4.706;2023-09-12T15:20:09;26.20;99.90
25214;DHT22;13160;51.834;4.706;2023-09-12T15:22:38;26.20;99.90
25214;DHT22;13160;51.834;4.706;2023-09-12T15:25:10;26.10;99.90
25214;DHT22;13160;51.834;4.706;2023-09-12T15:27:39;26.00;99.90
25214;DHT22;13160;51.834;4.706;2023-09-12T15:30:10;25.90;99.90
25214;DHT22;13160;51.834;4.706;2023-09-12T15:32:40;25.80;99.90
25214;DHT22;13160;51.834;4.706;2023-09-12T15:35:09;25.70;99.90
25214;DHT22;13160;51.834;4.706;2023-09-12T15:37:40;25.50;99.90
25214;DHT22;13160;51.834;4.706;2023-09-12T15:40:09;25.40;99.90
25214;DHT22;13160;51.834;4.706;2023-09-12T15:42:38;25.30;99.90
25214;DHT22;13160;51.834;4.706;2023-09-12T15:45:09;25.10;99.90
25214;DHT22;13160;51.834;4.706;2023-09-12T15:47:38;25.00;99.90
25214;DHT22;13160;51.834;4.706;2023-09-12T15:50:07;24.90;99.90